Airfield :
LOGIN :

Register | Disclaimer

   EN    FR    IT 

 










Legend :    VFR   Marginal VFR   IFR   Intensive IFR   Very Intensive IFR
Visi :
Ceiling :
>= 8 km
>= 3000ft
5 to 8 km
1000 to 3000 ft
1500m to 5 km
500 to 1000 ft
800 to 1500m
200 to 500 ft
< 800m
< 200 ft
Symbols :   Thunderstorms  Fog  Heavy snow  Heavy precipitations  Wind > 20 kt
SIGMETs :     Misc.  Thunderstorms  Icing  Turbulence  Mountain Waves  Volcanic Ashes







- Airport Elevation : 681 ft
- IATA code : LBA
- Download approach charts


EGNM - Leeds Bradford

CURRENT METAR :
  • 150720Z 28021KT 9999 FEW008 SCT012 14/12 Q1021

EXPIRED METARs :
  • 150650Z 28019KT 9999 SCT005 SCT011 14/13 Q1021
  • 150620Z 27018KT 9999 -DZ SCT006 BKN011 14/13 Q1021
  • 150550Z 27016KT 9999 SCT006 BKN011 14/13 Q1021
  • 150520Z 26017KT 9999 -RADZ BKN012 14/13 Q1021
  • 150450Z 27017KT 9999 -RADZ BKN012 14/13 Q1021

TAF TAF EGNM
Valid from the 15 at 06:00 until the 16 at 06:00 UTC


150459Z 1506/1606 27015G25KT 9999 FEW020
BECMG 1506/1509 26012KT SCT008 BKN011
TEMPO 1506/1512 6000 -RADZ FEW004 BKN008
PROB30
TEMPO 1506/1518 4000 RADZ BKN004
BECMG 1515/1518 03004KT 0300 FG BKN001
TEMPO 1518/1601 3000 RADZ BR BKN003
BECMG 1601/1604 9999 NSW SCT020
ATIS : +44 113 250 9696 (x2489)
No reported NOTAMs for that airfield.



MET'MAP, your aeronautical weather chart ! - Copyright ORBIFLY December 2007 - Disclaimer

ORBIFLY MET'MAP TEAM :

Programming & Development : Alexandra Zaïnal
Concept & Development : Baudouin d'Aumeries
Co-Development & Prog : Marc-Olivier Méhu
Technical & hardware support : Manuel Goepfert

Contact : metmap@orbifly.com




SOURCES & CREDITS :

   NOAA